sensor_id;sensor_type;location;lat;lon;timestamp;P1;durP1;ratioP1;P2;durP2;ratioP2
17598;SDS011;8918;52.092;5.232;2023-05-16T00:01:34;15.53;;;2.77;;
17598;SDS011;8918;52.092;5.232;2023-05-16T00:04:01;12.67;;;2.50;;
17598;SDS011;8918;52.092;5.232;2023-05-16T00:06:28;12.13;;;2.40;;
17598;SDS011;8918;52.092;5.232;2023-05-16T00:08:54;26.47;;;3.03;;
17598;SDS011;8918;52.092;5.232;2023-05-16T00:11:19;10.10;;;2.57;;
17598;SDS011;8918;52.092;5.232;2023-05-16T00:13:45;11.40;;;2.70;;
17598;SDS011;8918;52.092;5.232;2023-05-16T00:16:11;13.93;;;2.40;;
17598;SDS011;8918;52.092;5.232;2023-05-16T00:18:38;16.13;;;2.37;;
17598;SDS011;8918;52.092;5.232;2023-05-16T00:21:04;8.10;;;2.00;;
17598;SDS011;8918;52.092;5.232;2023-05-16T00:23:30;11.17;;;2.33;;
17598;SDS011;8918;52.092;5.232;2023-05-16T00:25:56;11.77;;;2.57;;
17598;SDS011;8918;52.092;5.232;2023-05-16T00:28:22;10.50;;;2.53;;
17598;SDS011;8918;52.092;5.232;2023-05-16T00:30:47;12.10;;;2.13;;
17598;SDS011;8918;52.092;5.232;2023-05-16T00:33:13;9.87;;;2.20;;
17598;SDS011;8918;52.092;5.232;2023-05-16T00:35:39;12.90;;;2.47;;
17598;SDS011;8918;52.092;5.232;2023-05-16T00:38:04;9.90;;;2.23;;
17598;SDS011;8918;52.092;5.232;2023-05-16T00:40:30;11.10;;;2.57;;
17598;SDS011;8918;52.092;5.232;2023-05-16T00:42:56;12.23;;;2.03;;
17598;SDS011;8918;52.092;5.232;2023-05-16T00:45:22;8.87;;;2.17;;
17598;SDS011;8918;52.092;5.232;2023-05-16T00:47:48;12.83;;;2.10;;
17598;SDS011;8918;52.092;5.232;2023-05-16T00:50:15;11.17;;;2.50;;
17598;SDS011;8918;52.092;5.232;2023-05-16T00:52:41;14.83;;;2.73;;
17598;SDS011;8918;52.092;5.232;2023-05-16T00:55:07;10.40;;;2.47;;
17598;SDS011;8918;52.092;5.232;2023-05-16T00:57:34;10.10;;;2.03;;
17598;SDS011;8918;52.092;5.232;2023-05-16T01:00:00;7.57;;;2.03;;
17598;SDS011;8918;52.092;5.232;2023-05-16T01:02:26;9.87;;;2.10;;
17598;SDS011;8918;52.092;5.232;2023-05-16T01:04:53;10.23;;;2.10;;
17598;SDS011;8918;52.092;5.232;2023-05-16T01:07:19;9.73;;;2.20;;
17598;SDS011;8918;52.092;5.232;2023-05-16T01:09:45;16.33;;;2.87;;
17598;SDS011;8918;52.092;5.232;2023-05-16T01:17:28;13.57;;;2.53;;
17598;SDS011;8918;52.092;5.232;2023-05-16T01:28:48;11.90;;;2.70;;
17598;SDS011;8918;52.092;5.232;2023-05-16T01:31:15;10.77;;;2.13;;
17598;SDS011;8918;52.092;5.232;2023-05-16T01:33:41;12.30;;;2.43;;
17598;SDS011;8918;52.092;5.232;2023-05-16T01:36:10;8.70;;;2.37;;
17598;SDS011;8918;52.092;5.232;2023-05-16T01:39:06;9.13;;;1.97;;
17598;SDS011;8918;52.092;5.232;2023-05-16T01:41:54;10.50;;;2.07;;
17598;SDS011;8918;52.092;5.232;2023-05-16T01:44:34;13.63;;;2.60;;
17598;SDS011;8918;52.092;5.232;2023-05-16T01:47:01;10.17;;;2.03;;
17598;SDS011;8918;52.092;5.232;2023-05-16T01:49:45;9.60;;;1.73;;
17598;SDS011;8918;52.092;5.232;2023-05-16T01:52:27;10.10;;;2.13;;
17598;SDS011;8918;52.092;5.232;2023-05-16T01:55:01;11.10;;;2.20;;
17598;SDS011;8918;52.092;5.232;2023-05-16T01:57:28;13.97;;;2.70;;
17598;SDS011;8918;52.092;5.232;2023-05-16T01:59:55;10.83;;;2.43;;
17598;SDS011;8918;52.092;5.232;2023-05-16T02:02:22;7.33;;;2.20;;
17598;SDS011;8918;52.092;5.232;2023-05-16T02:04:47;9.70;;;2.40;;
17598;SDS011;8918;52.092;5.232;2023-05-16T02:07:13;15.07;;;3.30;;
17598;SDS011;8918;52.092;5.232;2023-05-16T02:09:39;13.03;;;2.63;;
17598;SDS011;8918;52.092;5.232;2023-05-16T02:12:05;8.50;;;2.10;;
17598;SDS011;8918;52.092;5.232;2023-05-16T02:14:31;9.60;;;2.40;;
17598;SDS011;8918;52.092;5.232;2023-05-16T02:16:56;12.07;;;2.57;;
17598;SDS011;8918;52.092;5.232;2023-05-16T02:19:22;8.50;;;2.00;;
17598;SDS011;8918;52.092;5.232;2023-05-16T02:21:49;10.53;;;2.33;;
17598;SDS011;8918;52.092;5.232;2023-05-16T02:24:15;9.37;;;2.40;;
17598;SDS011;8918;52.092;5.232;2023-05-16T02:26:40;8.00;;;2.30;;
17598;SDS011;8918;52.092;5.232;2023-05-16T02:29:06;10.70;;;2.27;;
17598;SDS011;8918;52.092;5.232;2023-05-16T02:31:32;9.73;;;2.00;;
17598;SDS011;8918;52.092;5.232;2023-05-16T02:33:58;12.00;;;2.57;;
17598;SDS011;8918;52.092;5.232;2023-05-16T02:36:24;11.97;;;2.57;;
17598;SDS011;8918;52.092;5.232;2023-05-16T02:38:50;9.10;;;2.00;;
17598;SDS011;8918;52.092;5.232;2023-05-16T02:41:16;7.10;;;2.00;;
17598;SDS011;8918;52.092;5.232;2023-05-16T02:43:42;9.07;;;1.90;;
17598;SDS011;8918;52.092;5.232;2023-05-16T02:46:20;12.77;;;2.60;;
17598;SDS011;8918;52.092;5.232;2023-05-16T02:48:46;11.67;;;2.50;;
17598;SDS011;8918;52.092;5.232;2023-05-16T02:51:12;11.53;;;2.20;;
17598;SDS011;8918;52.092;5.232;2023-05-16T02:53:38;12.90;;;2.43;;
17598;SDS011;8918;52.092;5.232;2023-05-16T02:56:04;11.53;;;2.17;;
17598;SDS011;8918;52.092;5.232;2023-05-16T02:58:31;9.63;;;2.37;;
17598;SDS011;8918;52.092;5.232;2023-05-16T03:00:57;9.03;;;2.30;;
17598;SDS011;8918;52.092;5.232;2023-05-16T03:03:22;10.67;;;2.27;;
17598;SDS011;8918;52.092;5.232;2023-05-16T03:05:48;9.67;;;2.03;;
17598;SDS011;8918;52.092;5.232;2023-05-16T03:08:15;9.33;;;2.20;;
17598;SDS011;8918;52.092;5.232;2023-05-16T03:10:40;10.97;;;2.57;;
17598;SDS011;8918;52.092;5.232;2023-05-16T03:13:06;10.00;;;2.27;;
17598;SDS011;8918;52.092;5.232;2023-05-16T03:15:32;10.23;;;2.60;;
17598;SDS011;8918;52.092;5.232;2023-05-16T03:17:57;7.47;;;2.23;;
17598;SDS011;8918;52.092;5.232;2023-05-16T03:20:23;10.33;;;2.30;;
17598;SDS011;8918;52.092;5.232;2023-05-16T03:22:48;8.93;;;2.37;;
17598;SDS011;8918;52.092;5.232;2023-05-16T03:25:14;9.23;;;2.23;;
17598;SDS011;8918;52.092;5.232;2023-05-16T03:27:40;11.33;;;2.53;;
17598;SDS011;8918;52.092;5.232;2023-05-16T03:30:05;7.17;;;2.10;;
17598;SDS011;8918;52.092;5.232;2023-05-16T03:32:32;8.90;;;2.60;;
17598;SDS011;8918;52.092;5.232;2023-05-16T03:34:58;10.33;;;2.30;;
17598;SDS011;8918;52.092;5.232;2023-05-16T03:37:23;9.10;;;2.00;;
17598;SDS011;8918;52.092;5.232;2023-05-16T03:39:50;8.20;;;2.27;;
17598;SDS011;8918;52.092;5.232;2023-05-16T03:42:15;7.40;;;2.40;;
17598;SDS011;8918;52.092;5.232;2023-05-16T03:44:42;12.80;;;2.57;;
17598;SDS011;8918;52.092;5.232;2023-05-16T03:47:08;10.63;;;2.20;;
17598;SDS011;8918;52.092;5.232;2023-05-16T03:49:33;7.17;;;1.90;;
17598;SDS011;8918;52.092;5.232;2023-05-16T03:52:01;7.43;;;1.97;;
17598;SDS011;8918;52.092;5.232;2023-05-16T03:54:27;9.27;;;2.13;;
17598;SDS011;8918;52.092;5.232;2023-05-16T03:56:53;8.90;;;2.20;;
17598;SDS011;8918;52.092;5.232;2023-05-16T03:59:19;9.37;;;2.63;;
17598;SDS011;8918;52.092;5.232;2023-05-16T04:01:45;11.80;;;2.33;;
17598;SDS011;8918;52.092;5.232;2023-05-16T04:04:11;9.27;;;2.30;;
17598;SDS011;8918;52.092;5.232;2023-05-16T04:06:38;9.63;;;2.10;;
17598;SDS011;8918;52.092;5.232;2023-05-16T04:09:03;11.93;;;2.63;;
17598;SDS011;8918;52.092;5.232;2023-05-16T04:11:30;10.03;;;2.17;;
17598;SDS011;8918;52.092;5.232;2023-05-16T04:13:59;9.13;;;2.53;;
17598;SDS011;8918;52.092;5.232;2023-05-16T04:16:25;6.67;;;2.00;;
17598;SDS011;8918;52.092;5.232;2023-05-16T04:18:51;10.23;;;2.77;;
17598;SDS011;8918;52.092;5.232;2023-05-16T04:21:17;10.00;;;2.27;;
17598;SDS011;8918;52.092;5.232;2023-05-16T04:23:42;9.60;;;1.90;;
17598;SDS011;8918;52.092;5.232;2023-05-16T04:26:08;11.63;;;2.27;;
17598;SDS011;8918;52.092;5.232;2023-05-16T04:28:33;7.20;;;1.90;;
17598;SDS011;8918;52.092;5.232;2023-05-16T04:30:59;10.93;;;2.03;;
17598;SDS011;8918;52.092;5.232;2023-05-16T04:33:25;9.37;;;1.97;;
17598;SDS011;8918;52.092;5.232;2023-05-16T04:35:51;7.50;;;1.90;;
17598;SDS011;8918;52.092;5.232;2023-05-16T04:38:18;10.40;;;1.93;;
17598;SDS011;8918;52.092;5.232;2023-05-16T04:40:44;10.50;;;2.10;;
17598;SDS011;8918;52.092;5.232;2023-05-16T04:43:10;8.60;;;2.13;;
17598;SDS011;8918;52.092;5.232;2023-05-16T04:45:35;7.97;;;2.10;;
17598;SDS011;8918;52.092;5.232;2023-05-16T04:48:01;7.97;;;2.37;;
17598;SDS011;8918;52.092;5.232;2023-05-16T04:50:26;7.97;;;2.07;;
17598;SDS011;8918;52.092;5.232;2023-05-16T04:52:52;10.40;;;1.80;;
17598;SDS011;8918;52.092;5.232;2023-05-16T04:55:18;5.07;;;1.80;;
17598;SDS011;8918;52.092;5.232;2023-05-16T04:57:43;6.47;;;1.80;;
17598;SDS011;8918;52.092;5.232;2023-05-16T05:00:09;9.70;;;2.10;;
17598;SDS011;8918;52.092;5.232;2023-05-16T05:02:36;8.73;;;2.20;;
17598;SDS011;8918;52.092;5.232;2023-05-16T05:05:02;8.63;;;2.27;;
17598;SDS011;8918;52.092;5.232;2023-05-16T05:07:29;8.10;;;1.80;;
17598;SDS011;8918;52.092;5.232;2023-05-16T05:09:55;7.90;;;1.90;;
17598;SDS011;8918;52.092;5.232;2023-05-16T05:12:21;7.40;;;1.90;;
17598;SDS011;8918;52.092;5.232;2023-05-16T05:14:47;11.40;;;2.30;;
17598;SDS011;8918;52.092;5.232;2023-05-16T05:17:12;6.93;;;2.40;;
17598;SDS011;8918;52.092;5.232;2023-05-16T05:19:38;8.13;;;2.10;;
17598;SDS011;8918;52.092;5.232;2023-05-16T05:22:03;9.40;;;2.30;;
17598;SDS011;8918;52.092;5.232;2023-05-16T05:24:29;8.87;;;2.13;;
17598;SDS011;8918;52.092;5.232;2023-05-16T05:26:55;7.47;;;2.17;;
17598;SDS011;8918;52.092;5.232;2023-05-16T05:29:20;10.27;;;2.30;;
17598;SDS011;8918;52.092;5.232;2023-05-16T05:31:46;7.43;;;2.03;;
17598;SDS011;8918;52.092;5.232;2023-05-16T05:34:12;8.20;;;2.30;;
17598;SDS011;8918;52.092;5.232;2023-05-16T05:36:37;6.97;;;2.20;;
17598;SDS011;8918;52.092;5.232;2023-05-16T05:39:03;11.70;;;2.20;;
17598;SDS011;8918;52.092;5.232;2023-05-16T05:41:28;9.13;;;2.13;;
17598;SDS011;8918;52.092;5.232;2023-05-16T05:43:54;6.90;;;2.17;;
17598;SDS011;8918;52.092;5.232;2023-05-16T05:46:19;12.13;;;2.17;;
17598;SDS011;8918;52.092;5.232;2023-05-16T05:48:45;7.37;;;2.00;;
17598;SDS011;8918;52.092;5.232;2023-05-16T05:51:11;10.87;;;2.20;;
17598;SDS011;8918;52.092;5.232;2023-05-16T05:53:38;9.27;;;2.03;;
17598;SDS011;8918;52.092;5.232;2023-05-16T05:56:04;9.47;;;2.23;;
17598;SDS011;8918;52.092;5.232;2023-05-16T05:58:30;8.03;;;2.20;;
17598;SDS011;8918;52.092;5.232;2023-05-16T06:00:56;6.63;;;1.57;;
17598;SDS011;8918;52.092;5.232;2023-05-16T06:03:21;7.87;;;1.97;;
17598;SDS011;8918;52.092;5.232;2023-05-16T06:05:47;6.23;;;2.07;;
17598;SDS011;8918;52.092;5.232;2023-05-16T06:08:13;7.30;;;2.10;;
17598;SDS011;8918;52.092;5.232;2023-05-16T06:10:38;11.20;;;2.33;;
17598;SDS011;8918;52.092;5.232;2023-05-16T06:13:04;7.30;;;1.83;;
17598;SDS011;8918;52.092;5.232;2023-05-16T06:15:30;10.07;;;1.63;;
17598;SDS011;8918;52.092;5.232;2023-05-16T06:17:55;8.20;;;1.60;;
17598;SDS011;8918;52.092;5.232;2023-05-16T06:20:22;7.30;;;1.73;;
17598;SDS011;8918;52.092;5.232;2023-05-16T06:22:47;9.33;;;2.10;;
17598;SDS011;8918;52.092;5.232;2023-05-16T06:25:13;6.90;;;1.80;;
17598;SDS011;8918;52.092;5.232;2023-05-16T06:27:39;7.43;;;1.80;;
17598;SDS011;8918;52.092;5.232;2023-05-16T06:30:05;7.90;;;2.10;;
17598;SDS011;8918;52.092;5.232;2023-05-16T06:32:30;6.37;;;1.70;;
17598;SDS011;8918;52.092;5.232;2023-05-16T06:34:56;7.60;;;2.00;;
17598;SDS011;8918;52.092;5.232;2023-05-16T06:37:22;11.13;;;1.80;;
17598;SDS011;8918;52.092;5.232;2023-05-16T06:39:47;6.93;;;1.63;;
17598;SDS011;8918;52.092;5.232;2023-05-16T06:42:13;5.90;;;1.63;;
17598;SDS011;8918;52.092;5.232;2023-05-16T06:44:39;7.80;;;1.40;;
17598;SDS011;8918;52.092;5.232;2023-05-16T06:47:05;7.30;;;1.47;;
17598;SDS011;8918;52.092;5.232;2023-05-16T06:49:31;6.47;;;1.53;;
17598;SDS011;8918;52.092;5.232;2023-05-16T06:51:57;6.43;;;1.50;;
17598;SDS011;8918;52.092;5.232;2023-05-16T06:54:22;7.03;;;1.40;;
17598;SDS011;8918;52.092;5.232;2023-05-16T06:56:48;4.67;;;1.33;;
17598;SDS011;8918;52.092;5.232;2023-05-16T06:59:13;6.70;;;1.80;;
17598;SDS011;8918;52.092;5.232;2023-05-16T07:01:39;6.00;;;1.30;;
17598;SDS011;8918;52.092;5.232;2023-05-16T07:04:05;4.63;;;1.27;;
17598;SDS011;8918;52.092;5.232;2023-05-16T07:06:31;6.60;;;1.43;;
17598;SDS011;8918;52.092;5.232;2023-05-16T07:08:56;6.37;;;1.50;;
17598;SDS011;8918;52.092;5.232;2023-05-16T07:11:22;6.73;;;1.27;;
17598;SDS011;8918;52.092;5.232;2023-05-16T07:13:48;5.93;;;1.30;;
17598;SDS011;8918;52.092;5.232;2023-05-16T07:16:13;4.10;;;1.10;;
17598;SDS011;8918;52.092;5.232;2023-05-16T07:18:39;6.07;;;1.43;;
17598;SDS011;8918;52.092;5.232;2023-05-16T07:21:05;10.30;;;1.10;;
17598;SDS011;8918;52.092;5.232;2023-05-16T07:23:30;7.33;;;1.57;;
17598;SDS011;8918;52.092;5.232;2023-05-16T07:25:59;6.37;;;1.23;;
17598;SDS011;8918;52.092;5.232;2023-05-16T07:28:24;4.27;;;1.50;;
17598;SDS011;8918;52.092;5.232;2023-05-16T07:30:50;6.57;;;1.33;;
17598;SDS011;8918;52.092;5.232;2023-05-16T07:33:15;6.60;;;1.60;;
17598;SDS011;8918;52.092;5.232;2023-05-16T07:35:41;3.67;;;1.33;;
17598;SDS011;8918;52.092;5.232;2023-05-16T07:38:07;5.87;;;1.40;;
17598;SDS011;8918;52.092;5.232;2023-05-16T07:40:33;5.23;;;1.40;;
17598;SDS011;8918;52.092;5.232;2023-05-16T07:42:58;4.80;;;1.40;;
17598;SDS011;8918;52.092;5.232;2023-05-16T07:45:24;4.53;;;1.10;;
17598;SDS011;8918;52.092;5.232;2023-05-16T07:47:50;5.23;;;1.30;;
17598;SDS011;8918;52.092;5.232;2023-05-16T07:50:15;4.63;;;1.30;;
17598;SDS011;8918;52.092;5.232;2023-05-16T07:52:41;8.00;;;1.50;;
17598;SDS011;8918;52.092;5.232;2023-05-16T07:55:06;6.70;;;1.53;;
17598;SDS011;8918;52.092;5.232;2023-05-16T07:57:32;4.87;;;1.57;;
17598;SDS011;8918;52.092;5.232;2023-05-16T07:59:58;5.57;;;1.20;;
17598;SDS011;8918;52.092;5.232;2023-05-16T08:02:24;4.37;;;1.13;;
17598;SDS011;8918;52.092;5.232;2023-05-16T08:04:54;6.23;;;1.40;;
17598;SDS011;8918;52.092;5.232;2023-05-16T08:07:21;7.33;;;1.40;;
17598;SDS011;8918;52.092;5.232;2023-05-16T08:09:46;5.47;;;1.30;;
17598;SDS011;8918;52.092;5.232;2023-05-16T08:12:12;7.13;;;1.43;;
17598;SDS011;8918;52.092;5.232;2023-05-16T08:14:37;5.30;;;1.23;;
17598;SDS011;8918;52.092;5.232;2023-05-16T08:17:03;7.70;;;1.23;;
17598;SDS011;8918;52.092;5.232;2023-05-16T08:19:29;4.93;;;1.30;;
17598;SDS011;8918;52.092;5.232;2023-05-16T08:21:56;6.07;;;1.40;;
17598;SDS011;8918;52.092;5.232;2023-05-16T08:24:22;5.07;;;1.20;;
17598;SDS011;8918;52.092;5.232;2023-05-16T08:26:48;3.87;;;1.67;;
17598;SDS011;8918;52.092;5.232;2023-05-16T08:29:14;8.93;;;1.60;;
17598;SDS011;8918;52.092;5.232;2023-05-16T08:31:40;5.50;;;1.40;;
17598;SDS011;8918;52.092;5.232;2023-05-16T08:34:05;5.50;;;1.10;;
17598;SDS011;8918;52.092;5.232;2023-05-16T08:36:31;3.60;;;1.07;;
17598;SDS011;8918;52.092;5.232;2023-05-16T08:38:59;4.67;;;1.23;;
17598;SDS011;8918;52.092;5.232;2023-05-16T08:41:25;6.80;;;1.43;;
17598;SDS011;8918;52.092;5.232;2023-05-16T08:43:51;3.90;;;1.10;;
17598;SDS011;8918;52.092;5.232;2023-05-16T08:46:17;4.17;;;1.10;;
17598;SDS011;8918;52.092;5.232;2023-05-16T08:48:46;5.07;;;1.20;;
17598;SDS011;8918;52.092;5.232;2023-05-16T08:51:20;3.60;;;1.20;;
17598;SDS011;8918;52.092;5.232;2023-05-16T08:53:53;6.47;;;1.17;;
17598;SDS011;8918;52.092;5.232;2023-05-16T08:56:24;3.30;;;1.40;;
17598;SDS011;8918;52.092;5.232;2023-05-16T08:58:51;6.00;;;1.20;;
17598;SDS011;8918;52.092;5.232;2023-05-16T09:01:19;5.13;;;1.13;;
17598;SDS011;8918;52.092;5.232;2023-05-16T09:03:46;7.33;;;1.30;;
17598;SDS011;8918;52.092;5.232;2023-05-16T09:06:13;3.97;;;1.10;;
17598;SDS011;8918;52.092;5.232;2023-05-16T09:08:38;4.77;;;1.20;;
17598;SDS011;8918;52.092;5.232;2023-05-16T09:11:04;4.60;;;1.30;;
17598;SDS011;8918;52.092;5.232;2023-05-16T09:13:30;2.93;;;1.07;;
17598;SDS011;8918;52.092;5.232;2023-05-16T09:16:12;4.90;;;1.57;;
17598;SDS011;8918;52.092;5.232;2023-05-16T09:18:39;3.07;;;1.20;;
17598;SDS011;8918;52.092;5.232;2023-05-16T09:21:09;2.47;;;0.97;;
17598;SDS011;8918;52.092;5.232;2023-05-16T09:23:36;5.30;;;1.20;;
17598;SDS011;8918;52.092;5.232;2023-05-16T09:26:02;5.63;;;1.30;;
17598;SDS011;8918;52.092;5.232;2023-05-16T09:28:29;5.73;;;1.13;;
17598;SDS011;8918;52.092;5.232;2023-05-16T09:30:55;4.10;;;1.05;;
17598;SDS011;8918;52.092;5.232;2023-05-16T09:33:26;4.68;;;1.10;;
17598;SDS011;8918;52.092;5.232;2023-05-16T09:35:59;4.25;;;1.13;;
17598;SDS011;8918;52.092;5.232;2023-05-16T09:38:26;4.40;;;1.00;;
17598;SDS011;8918;52.092;5.232;2023-05-16T09:40:55;4.77;;;1.20;;
17598;SDS011;8918;52.092;5.232;2023-05-16T09:43:24;6.57;;;1.63;;
17598;SDS011;8918;52.092;5.232;2023-05-16T09:45:50;3.20;;;1.03;;
17598;SDS011;8918;52.092;5.232;2023-05-16T09:48:17;4.07;;;1.20;;
17598;SDS011;8918;52.092;5.232;2023-05-16T09:50:47;5.03;;;1.10;;
17598;SDS011;8918;52.092;5.232;2023-05-16T09:53:23;5.13;;;1.20;;
17598;SDS011;8918;52.092;5.232;2023-05-16T09:56:10;5.18;;;1.17;;
17598;SDS011;8918;52.092;5.232;2023-05-16T09:58:38;4.25;;;1.17;;
17598;SDS011;8918;52.092;5.232;2023-05-16T10:01:05;8.17;;;1.40;;
17598;SDS011;8918;52.092;5.232;2023-05-16T10:03:35;5.47;;;1.40;;
17598;SDS011;8918;52.092;5.232;2023-05-16T10:06:02;2.60;;;1.00;;
17598;SDS011;8918;52.092;5.232;2023-05-16T10:08:30;4.05;;;1.20;;
17598;SDS011;8918;52.092;5.232;2023-05-16T10:10:56;4.28;;;1.20;;
17598;SDS011;8918;52.092;5.232;2023-05-16T10:13:25;4.35;;;1.50;;
17598;SDS011;8918;52.092;5.232;2023-05-16T10:15:57;5.77;;;1.30;;
17598;SDS011;8918;52.092;5.232;2023-05-16T10:18:27;4.20;;;1.47;;
17598;SDS011;8918;52.092;5.232;2023-05-16T10:20:54;7.25;;;1.50;;
17598;SDS011;8918;52.092;5.232;2023-05-16T10:23:21;3.23;;;1.30;;
17598;SDS011;8918;52.092;5.232;2023-05-16T10:25:50;4.63;;;1.37;;
17598;SDS011;8918;52.092;5.232;2023-05-16T10:28:16;7.27;;;1.40;;
17598;SDS011;8918;52.092;5.232;2023-05-16T10:30:45;5.60;;;1.40;;
17598;SDS011;8918;52.092;5.232;2023-05-16T10:33:15;5.27;;;1.37;;
17598;SDS011;8918;52.092;5.232;2023-05-16T10:35:42;4.70;;;1.10;;
17598;SDS011;8918;52.092;5.232;2023-05-16T10:38:09;4.53;;;1.07;;
17598;SDS011;8918;52.092;5.232;2023-05-16T10:40:36;4.93;;;1.08;;
17598;SDS011;8918;52.092;5.232;2023-05-16T10:43:04;4.47;;;1.33;;
17598;SDS011;8918;52.092;5.232;2023-05-16T10:45:31;4.82;;;1.27;;
17598;SDS011;8918;52.092;5.232;2023-05-16T10:47:57;8.10;;;1.33;;
17598;SDS011;8918;52.092;5.232;2023-05-16T10:56:05;3.63;;;1.20;;
17598;SDS011;8918;52.092;5.232;2023-05-16T11:01:23;5.63;;;1.20;;
17598;SDS011;8918;52.092;5.232;2023-05-16T11:06:43;4.20;;;1.27;;
17598;SDS011;8918;52.092;5.232;2023-05-16T11:11:41;5.07;;;1.27;;
17598;SDS011;8918;52.092;5.232;2023-05-16T11:14:23;3.58;;;1.10;;
17598;SDS011;8918;52.092;5.232;2023-05-16T11:19:34;5.25;;;1.20;;
17598;SDS011;8918;52.092;5.232;2023-05-16T11:27:29;5.60;;;1.30;;
17598;SDS011;8918;52.092;5.232;2023-05-16T11:32:34;6.35;;;1.20;;
17598;SDS011;8918;52.092;5.232;2023-05-16T11:35:03;2.90;;;1.10;;
17598;SDS011;8918;52.092;5.232;2023-05-16T11:37:32;3.33;;;1.23;;
17598;SDS011;8918;52.092;5.232;2023-05-16T11:40:04;4.75;;;1.15;;
17598;SDS011;8918;52.092;5.232;2023-05-16T11:42:33;6.53;;;2.88;;
17598;SDS011;8918;52.092;5.232;2023-05-16T11:45:04;2.72;;;0.95;;
17598;SDS011;8918;52.092;5.232;2023-05-16T11:47:37;7.20;;;1.30;;
17598;SDS011;8918;52.092;5.232;2023-05-16T11:50:25;3.07;;;1.00;;
17598;SDS011;8918;52.092;5.232;2023-05-16T11:52:53;6.05;;;1.30;;
17598;SDS011;8918;52.092;5.232;2023-05-16T11:55:21;4.90;;;1.37;;
17598;SDS011;8918;52.092;5.232;2023-05-16T11:57:51;2.27;;;1.03;;
17598;SDS011;8918;52.092;5.232;2023-05-16T12:00:18;5.07;;;1.27;;
17598;SDS011;8918;52.092;5.232;2023-05-16T12:02:45;5.37;;;1.20;;
17598;SDS011;8918;52.092;5.232;2023-05-16T12:05:12;3.03;;;0.90;;
17598;SDS011;8918;52.092;5.232;2023-05-16T12:07:39;4.90;;;1.30;;
17598;SDS011;8918;52.092;5.232;2023-05-16T12:10:06;5.57;;;1.10;;
17598;SDS011;8918;52.092;5.232;2023-05-16T12:12:32;3.67;;;1.30;;
17598;SDS011;8918;52.092;5.232;2023-05-16T12:14:59;5.05;;;1.13;;
17598;SDS011;8918;52.092;5.232;2023-05-16T12:17:26;3.75;;;1.30;;
17598;SDS011;8918;52.092;5.232;2023-05-16T12:19:52;5.20;;;1.30;;
17598;SDS011;8918;52.092;5.232;2023-05-16T12:22:18;4.10;;;1.40;;
17598;SDS011;8918;52.092;5.232;2023-05-16T12:24:45;5.30;;;1.23;;
17598;SDS011;8918;52.092;5.232;2023-05-16T12:27:10;5.43;;;1.38;;
17598;SDS011;8918;52.092;5.232;2023-05-16T12:29:36;5.30;;;1.40;;
17598;SDS011;8918;52.092;5.232;2023-05-16T12:32:02;6.03;;;1.75;;
17598;SDS011;8918;52.092;5.232;2023-05-16T12:34:31;3.70;;;1.20;;
17598;SDS011;8918;52.092;5.232;2023-05-16T12:36:57;4.20;;;1.70;;
17598;SDS011;8918;52.092;5.232;2023-05-16T12:39:23;3.83;;;1.27;;
17598;SDS011;8918;52.092;5.232;2023-05-16T12:41:49;6.32;;;1.45;;
17598;SDS011;8918;52.092;5.232;2023-05-16T12:44:15;3.00;;;1.23;;
17598;SDS011;8918;52.092;5.232;2023-05-16T12:46:43;4.85;;;1.30;;
17598;SDS011;8918;52.092;5.232;2023-05-16T12:49:11;6.75;;;1.52;;
17598;SDS011;8918;52.092;5.232;2023-05-16T12:51:37;6.03;;;1.20;;
17598;SDS011;8918;52.092;5.232;2023-05-16T12:54:10;4.00;;;1.25;;
17598;SDS011;8918;52.092;5.232;2023-05-16T12:56:39;3.03;;;1.40;;
17598;SDS011;8918;52.092;5.232;2023-05-16T12:59:06;4.88;;;1.38;;
17598;SDS011;8918;52.092;5.232;2023-05-16T13:01:32;2.95;;;1.00;;
17598;SDS011;8918;52.092;5.232;2023-05-16T13:03:59;2.95;;;1.17;;
17598;SDS011;8918;52.092;5.232;2023-05-16T13:06:25;4.03;;;1.20;;
17598;SDS011;8918;52.092;5.232;2023-05-16T13:08:50;5.38;;;1.50;;
17598;SDS011;8918;52.092;5.232;2023-05-16T13:11:16;7.10;;;3.30;;
17598;SDS011;8918;52.092;5.232;2023-05-16T13:13:43;7.88;;;2.63;;
17598;SDS011;8918;52.092;5.232;2023-05-16T13:16:08;5.63;;;1.40;;
17598;SDS011;8918;52.092;5.232;2023-05-16T13:18:34;4.90;;;1.30;;
17598;SDS011;8918;52.092;5.232;2023-05-16T13:21:00;7.70;;;1.60;;
17598;SDS011;8918;52.092;5.232;2023-05-16T13:23:28;4.25;;;1.38;;
17598;SDS011;8918;52.092;5.232;2023-05-16T13:25:54;5.60;;;1.50;;
17598;SDS011;8918;52.092;5.232;2023-05-16T13:28:20;3.35;;;1.35;;
17598;SDS011;8918;52.092;5.232;2023-05-16T13:30:45;5.78;;;1.10;;
17598;SDS011;8918;52.092;5.232;2023-05-16T13:33:11;5.40;;;1.30;;
17598;SDS011;8918;52.092;5.232;2023-05-16T13:35:36;5.38;;;1.20;;
17598;SDS011;8918;52.092;5.232;2023-05-16T13:38:02;6.75;;;1.40;;
17598;SDS011;8918;52.092;5.232;2023-05-16T13:40:28;4.10;;;1.17;;
17598;SDS011;8918;52.092;5.232;2023-05-16T13:42:54;3.80;;;1.17;;
17598;SDS011;8918;52.092;5.232;2023-05-16T13:45:20;3.35;;;0.93;;
17598;SDS011;8918;52.092;5.232;2023-05-16T13:47:46;4.20;;;1.10;;
17598;SDS011;8918;52.092;5.232;2023-05-16T13:50:11;4.82;;;1.20;;
17598;SDS011;8918;52.092;5.232;2023-05-16T13:52:37;3.25;;;1.20;;
17598;SDS011;8918;52.092;5.232;2023-05-16T13:55:04;5.70;;;1.33;;
17598;SDS011;8918;52.092;5.232;2023-05-16T13:57:30;5.43;;;1.50;;
17598;SDS011;8918;52.092;5.232;2023-05-16T13:59:56;5.80;;;1.40;;
17598;SDS011;8918;52.092;5.232;2023-05-16T14:02:23;2.83;;;1.23;;
17598;SDS011;8918;52.092;5.232;2023-05-16T14:04:50;4.35;;;1.38;;
17598;SDS011;8918;52.092;5.232;2023-05-16T14:07:15;5.00;;;1.08;;
17598;SDS011;8918;52.092;5.232;2023-05-16T14:09:41;5.35;;;1.05;;
17598;SDS011;8918;52.092;5.232;2023-05-16T14:12:08;3.38;;;1.20;;
17598;SDS011;8918;52.092;5.232;2023-05-16T14:14:34;3.95;;;1.10;;
17598;SDS011;8918;52.092;5.232;2023-05-16T14:16:59;4.63;;;1.60;;
17598;SDS011;8918;52.092;5.232;2023-05-16T14:19:25;3.10;;;1.10;;
17598;SDS011;8918;52.092;5.232;2023-05-16T14:21:50;3.83;;;1.08;;
17598;SDS011;8918;52.092;5.232;2023-05-16T14:24:16;5.10;;;1.30;;
17598;SDS011;8918;52.092;5.232;2023-05-16T14:26:42;4.72;;;1.45;;
17598;SDS011;8918;52.092;5.232;2023-05-16T14:29:07;4.57;;;1.27;;
17598;SDS011;8918;52.092;5.232;2023-05-16T14:31:33;5.05;;;1.30;;
17598;SDS011;8918;52.092;5.232;2023-05-16T14:34:00;2.55;;;1.10;;
17598;SDS011;8918;52.092;5.232;2023-05-16T14:36:26;2.45;;;1.10;;
17598;SDS011;8918;52.092;5.232;2023-05-16T14:38:51;3.03;;;1.10;;
17598;SDS011;8918;52.092;5.232;2023-05-16T14:41:17;4.28;;;1.10;;
17598;SDS011;8918;52.092;5.232;2023-05-16T14:43:43;3.65;;;1.23;;
17598;SDS011;8918;52.092;5.232;2023-05-16T14:46:09;3.40;;;1.10;;
17598;SDS011;8918;52.092;5.232;2023-05-16T14:48:35;4.65;;;1.23;;
17598;SDS011;8918;52.092;5.232;2023-05-16T14:51:00;5.63;;;1.10;;
17598;SDS011;8918;52.092;5.232;2023-05-16T14:53:26;3.67;;;1.23;;
17598;SDS011;8918;52.092;5.232;2023-05-16T14:55:51;3.33;;;1.15;;
17598;SDS011;8918;52.092;5.232;2023-05-16T14:58:17;3.63;;;1.23;;
17598;SDS011;8918;52.092;5.232;2023-05-16T15:00:43;4.07;;;1.17;;
17598;SDS011;8918;52.092;5.232;2023-05-16T15:03:08;3.95;;;1.00;;
17598;SDS011;8918;52.092;5.232;2023-05-16T15:05:34;2.78;;;1.20;;
17598;SDS011;8918;52.092;5.232;2023-05-16T15:08:00;4.50;;;1.20;;
17598;SDS011;8918;52.092;5.232;2023-05-16T15:10:25;4.55;;;1.10;;
17598;SDS011;8918;52.092;5.232;2023-05-16T15:12:51;2.40;;;1.17;;
17598;SDS011;8918;52.092;5.232;2023-05-16T15:15:17;2.90;;;0.85;;
17598;SDS011;8918;52.092;5.232;2023-05-16T15:17:42;3.80;;;1.27;;
17598;SDS011;8918;52.092;5.232;2023-05-16T15:20:09;2.70;;;1.00;;
17598;SDS011;8918;52.092;5.232;2023-05-16T15:22:35;3.53;;;1.20;;
17598;SDS011;8918;52.092;5.232;2023-05-16T15:25:02;5.53;;;1.25;;
17598;SDS011;8918;52.092;5.232;2023-05-16T15:27:29;3.35;;;1.00;;
17598;SDS011;8918;52.092;5.232;2023-05-16T15:29:58;1.90;;;0.93;;
17598;SDS011;8918;52.092;5.232;2023-05-16T15:32:24;3.58;;;1.10;;
17598;SDS011;8918;52.092;5.232;2023-05-16T15:34:50;3.67;;;1.13;;